Bethlehem, Indiana
Current Conditions -  °F | °C
As of 4:13 AM on Wednesday 28 Jan 2015 (Local Time) from KIMS Reporting Station
Clear Clear  
Wind Chill: 19°   Ceiling: Unl
Heat Index: 19°   Visibility: 7mi
Dew Point: 16°   Wind: 0mph
Humidity: 86%   Direction: NA
Pressure: 30.32"   Gusts: NA
Location:  38.54°N, 85.42°W
Report Text: KIMS 280913Z AUTO 00000KT 7SM CLR M07/M09 A3032 RMK AO1
Loading
Personal Weather Stations






























Interactive Weather Map New forecast layout! Learn more

10-Day Weather Forecast

Advertisements
Track Severe Weather on mobile